Time;durP1;ratioP1;P1;durP2;ratioP2;P2;SDS_P1;SDS_P2;PMS_P1;PMS_P2;Temp;Humidity;BMP_temperature;BMP_pressure;BME280_temperature;BME280_humidity;BME280_pressure;Samples;Min_cycle;Max_cycle;Signal;HPM_P1;HPM_P2
2022/02/23 00:01:51;;;;;;;22.30;5.27;;;7.90;99.90;;;;;;6233935;23;20173;-79
2022/02/23 00:04:18;;;;;;;27.87;7.30;;;7.90;99.90;;;;;;6234823;23;20887;-80
2022/02/23 00:06:47;;;;;;;18.23;4.73;;;8.00;99.90;;;;;;6231642;23;20165;-79
2022/02/23 00:09:13;;;;;;;19.93;4.60;;;8.00;99.90;;;;;;6204899;23;20178;-78
2022/02/23 00:11:40;;;;;;;20.60;5.33;;;7.90;99.90;;;;;;6204481;23;20174;-83
2022/02/23 00:14:07;;;;;;;20.70;4.37;;;8.00;99.90;;;;;;6204203;23;20197;-78
2022/02/23 00:16:33;;;;;;;17.80;4.40;;;8.00;99.90;;;;;;6203731;23;20193;-79
2022/02/23 00:19:00;;;;;;;24.27;4.30;;;7.90;99.90;;;;;;6203940;23;20177;-79
2022/02/23 00:21:27;;;;;;;20.53;4.13;;;7.90;99.90;;;;;;6204423;23;20178;-79
2022/02/23 00:23:55;;;;;;;14.63;4.20;;;7.90;99.90;;;;;;6202917;23;20198;-80
2022/02/23 00:26:22;;;;;;;21.07;5.50;;;7.80;99.90;;;;;;6204806;23;20766;-81
2022/02/23 00:28:48;;;;;;;19.33;4.10;;;7.80;99.90;;;;;;6203787;23;20704;-79
2022/02/23 00:31:15;;;;;;;21.37;4.80;;;7.80;99.90;;;;;;6203914;23;20166;-79
2022/02/23 00:33:42;;;;;;;17.43;3.93;;;7.80;99.90;;;;;;6204994;23;20197;-80
2022/02/23 00:36:09;;;;;;;18.87;5.20;;;7.80;99.90;;;;;;6204801;23;20438;-80
2022/02/23 00:38:35;;;;;;;22.17;4.10;;;7.80;99.90;;;;;;6203621;23;20730;-80
2022/02/23 00:41:04;;;;;;;20.40;4.13;;;7.80;99.90;;;;;;6204304;23;20173;-80
2022/02/23 00:43:31;;;;;;;20.30;4.20;;;7.80;99.90;;;;;;6204014;23;20198;-78
2022/02/23 00:45:57;;;;;;;13.53;4.30;;;7.80;99.90;;;;;;6204094;23;20253;-79
2022/02/23 00:48:24;;;;;;;24.13;4.80;;;7.80;99.90;;;;;;6206227;23;20185;-79
2022/02/23 00:50:51;;;;;;;19.70;3.63;;;7.80;99.90;;;;;;6205630;23;20648;-80
2022/02/23 00:53:18;;;;;;;15.63;3.53;;;7.80;99.90;;;;;;6206021;23;20752;-80
2022/02/23 00:55:45;;;;;;;20.53;3.97;;;7.80;99.90;;;;;;6205394;23;20170;-80
2022/02/23 00:58:13;;;;;;;19.00;3.87;;;7.80;99.90;;;;;;6206656;23;20174;-80
2022/02/23 01:00:40;;;;;;;26.87;6.00;;;7.70;99.90;;;;;;6206304;23;20228;-79
2022/02/23 01:03:07;;;;;;;21.70;4.83;;;7.70;99.90;;;;;;6206578;23;20194;-80
2022/02/23 01:05:35;;;;;;;24.90;4.47;;;7.70;99.90;;;;;;6205502;23;20185;-80
2022/02/23 01:08:02;;;;;;;23.10;4.80;;;7.80;99.90;;;;;;6206450;23;20198;-80
2022/02/23 01:10:29;;;;;;;26.20;5.27;;;7.80;99.90;;;;;;6206026;23;20170;-78
2022/02/23 01:12:56;;;;;;;20.37;5.67;;;7.80;99.90;;;;;;6205217;23;20166;-80
2022/02/23 01:15:25;;;;;;;20.37;4.87;;;7.80;99.90;;;;;;6206371;23;20682;-80
2022/02/23 01:17:52;;;;;;;22.30;5.30;;;7.80;99.90;;;;;;6205898;23;20185;-79
2022/02/23 01:20:18;;;;;;;24.87;4.80;;;7.70;99.90;;;;;;6204537;23;20184;-78
2022/02/23 01:22:45;;;;;;;26.63;6.90;;;7.70;99.90;;;;;;6204513;23;20185;-79
2022/02/23 01:25:12;;;;;;;21.83;4.73;;;7.70;99.90;;;;;;6205216;23;20170;-80
2022/02/23 01:27:39;;;;;;;24.27;4.57;;;7.70;99.90;;;;;;6205070;23;20178;-79
2022/02/23 01:30:08;;;;;;;21.80;5.20;;;7.70;99.90;;;;;;6206151;23;20166;-79
2022/02/23 01:32:36;;;;;;;18.40;4.70;;;7.70;99.90;;;;;;6205358;23;20184;-80
2022/02/23 01:35:03;;;;;;;17.07;4.27;;;7.70;99.90;;;;;;6206009;23;20174;-80
2022/02/23 01:37:29;;;;;;;13.43;3.30;;;7.70;99.90;;;;;;6206170;23;20181;-79
2022/02/23 01:39:56;;;;;;;23.20;4.67;;;7.70;99.90;;;;;;6205228;23;20174;-80
2022/02/23 01:42:23;;;;;;;19.17;4.03;;;7.70;99.90;;;;;;6206139;23;20174;-80
2022/02/23 01:44:50;;;;;;;17.60;4.90;;;7.70;99.90;;;;;;6205058;23;20182;-80
2022/02/23 01:47:16;;;;;;;24.80;5.50;;;7.70;99.90;;;;;;6204739;23;20498;-79
2022/02/23 01:49:45;;;;;;;20.10;4.80;;;7.70;99.90;;;;;;6205595;23;20260;-79
2022/02/23 01:52:11;;;;;;;22.97;5.13;;;7.70;99.90;;;;;;6206055;23;20174;-79
2022/02/23 01:54:38;;;;;;;21.23;6.50;;;7.70;99.90;;;;;;6204288;23;20174;-80
2022/02/23 01:57:05;;;;;;;25.30;6.00;;;7.70;99.90;;;;;;6205172;23;20185;-80
2022/02/23 01:59:32;;;;;;;23.33;5.83;;;7.70;99.90;;;;;;6205740;23;20170;-80
2022/02/23 02:01:59;;;;;;;19.37;5.07;;;7.70;99.90;;;;;;6204869;23;20170;-79
2022/02/23 02:04:26;;;;;;;25.07;6.37;;;7.70;99.90;;;;;;6205540;23;20204;-79
2022/02/23 02:06:54;;;;;;;33.50;6.43;;;7.70;99.90;;;;;;6205346;23;20197;-79
2022/02/23 02:09:21;;;;;;;21.20;4.83;;;7.70;99.90;;;;;;6204668;23;20170;-79
2022/02/23 02:11:48;;;;;;;32.03;6.03;;;7.70;99.90;;;;;;6205120;23;20454;-79
2022/02/23 02:14:15;;;;;;;13.80;4.03;;;7.70;99.90;;;;;;6205530;23;20611;-78
2022/02/23 02:16:41;;;;;;;17.80;4.47;;;7.70;99.90;;;;;;6204903;23;20265;-79
2022/02/23 02:19:08;;;;;;;21.90;4.77;;;7.60;99.90;;;;;;6205816;23;20182;-79
2022/02/23 02:21:53;;;;;;;23.30;5.33;;;7.60;99.90;;;;;;6205464;23;20189;-78
2022/02/23 02:24:21;;;;;;;20.80;4.97;;;7.70;99.90;;;;;;6204639;23;20509;-79
2022/02/23 02:26:48;;;;;;;17.67;4.43;;;7.70;99.90;;;;;;6204361;23;20169;-81
2022/02/23 02:29:15;;;;;;;20.10;4.50;;;7.70;99.90;;;;;;6205184;23;20182;-77
2022/02/23 02:31:41;;;;;;;19.80;5.57;;;7.70;99.90;;;;;;6204859;23;20178;-79
2022/02/23 02:34:08;;;;;;;26.43;6.17;;;7.60;99.90;;;;;;6205757;23;20173;-79
2022/02/23 02:36:35;;;;;;;21.10;4.17;;;7.60;99.90;;;;;;6204231;23;20170;-78
2022/02/23 02:39:03;;;;;;;25.40;4.97;;;7.60;99.90;;;;;;6205861;23;20166;-80
2022/02/23 02:41:30;;;;;;;26.03;5.93;;;7.60;99.90;;;;;;6206324;23;20174;-80
2022/02/23 02:43:57;;;;;;;18.63;4.87;;;7.60;99.90;;;;;;6204986;23;20197;-79
2022/02/23 02:46:23;;;;;;;16.63;3.70;;;7.60;99.90;;;;;;6204082;23;20173;-79
2022/02/23 02:48:50;;;;;;;16.40;4.10;;;7.60;99.90;;;;;;6204230;23;20185;-78
2022/02/23 02:51:17;;;;;;;21.67;4.63;;;7.60;99.90;;;;;;6204766;23;20174;-80
2022/02/23 02:53:44;;;;;;;20.47;3.97;;;7.60;99.90;;;;;;6204777;23;20178;-81
2022/02/23 02:56:12;;;;;;;22.67;5.53;;;7.60;99.90;;;;;;6205311;23;20226;-81
2022/02/23 02:58:39;;;;;;;20.57;4.97;;;7.60;99.90;;;;;;6204265;23;20189;-80
2022/02/23 03:01:06;;;;;;;15.57;4.70;;;7.60;99.90;;;;;;6204679;23;20174;-79
2022/02/23 03:03:33;;;;;;;22.07;3.57;;;7.60;99.90;;;;;;6204963;23;20190;-79
2022/02/23 03:06:00;;;;;;;23.10;4.87;;;7.60;99.90;;;;;;6205409;23;20185;-79
2022/02/23 03:08:28;;;;;;;21.27;4.80;;;7.50;99.90;;;;;;6205301;23;20201;-79
2022/02/23 03:10:55;;;;;;;18.43;3.80;;;7.50;99.90;;;;;;6205068;23;20174;-79
2022/02/23 03:13:23;;;;;;;22.23;4.77;;;7.50;99.90;;;;;;6204988;23;20174;-79
2022/02/23 03:15:50;;;;;;;16.97;4.77;;;7.50;99.90;;;;;;6205294;23;20166;-79
2022/02/23 03:18:18;;;;;;;19.50;5.03;;;7.50;99.90;;;;;;6203807;23;20177;-80
2022/02/23 03:20:45;;;;;;;20.83;5.43;;;7.50;99.90;;;;;;6204749;23;20169;-79
2022/02/23 03:23:11;;;;;;;24.63;4.47;;;7.50;99.90;;;;;;6205094;23;20181;-79
2022/02/23 03:25:38;;;;;;;20.60;4.60;;;7.50;99.90;;;;;;6203923;23;20194;-80
2022/02/23 03:28:05;;;;;;;25.27;4.83;;;7.50;99.90;;;;;;6203984;23;20509;-78
2022/02/23 03:30:33;;;;;;;14.90;4.23;;;7.50;99.90;;;;;;6204963;23;20170;-79
2022/02/23 03:33:00;;;;;;;17.17;4.10;;;7.40;99.90;;;;;;6203686;23;20170;-79
2022/02/23 03:35:28;;;;;;;28.13;4.90;;;7.40;99.90;;;;;;6205189;23;20174;-80
2022/02/23 03:37:55;;;;;;;17.83;4.60;;;7.50;99.90;;;;;;6204743;23;20236;-80
2022/02/23 03:40:22;;;;;;;19.10;3.93;;;7.50;99.90;;;;;;6204333;23;20178;-79
2022/02/23 03:42:50;;;;;;;28.23;5.27;;;7.50;99.90;;;;;;6204844;23;20166;-79
2022/02/23 03:45:17;;;;;;;25.40;4.97;;;7.50;99.90;;;;;;6204990;23;20233;-80
2022/02/23 03:47:46;;;;;;;27.60;5.33;;;7.50;99.90;;;;;;6204444;23;20201;-79
2022/02/23 03:50:13;;;;;;;19.17;4.77;;;7.40;99.90;;;;;;6205736;23;20181;-78
2022/02/23 03:52:42;;;;;;;29.70;5.57;;;7.50;99.90;;;;;;6204942;23;20851;-79
2022/02/23 03:55:10;;;;;;;23.37;6.03;;;7.50;99.90;;;;;;6205520;23;20174;-79
2022/02/23 03:57:37;;;;;;;19.90;5.33;;;7.40;99.90;;;;;;6205226;23;20174;-79
2022/02/23 04:00:06;;;;;;;19.47;4.50;;;7.50;99.90;;;;;;6205623;23;20194;-79
2022/02/23 04:02:33;;;;;;;16.10;3.87;;;7.50;99.90;;;;;;6204591;23;20451;-80
2022/02/23 04:05:01;;;;;;;21.70;4.23;;;7.50;99.90;;;;;;6205162;23;20193;-81
2022/02/23 04:07:28;;;;;;;19.50;3.73;;;7.50;99.90;;;;;;6204345;23;20606;-82
2022/02/23 04:09:55;;;;;;;26.50;4.70;;;7.50;99.90;;;;;;6205276;23;20174;-79
2022/02/23 04:12:23;;;;;;;19.37;3.47;;;7.50;99.90;;;;;;6204960;23;20177;-79
2022/02/23 04:14:51;;;;;;;20.10;4.60;;;7.50;99.90;;;;;;6203783;23;20205;-80
2022/02/23 04:17:18;;;;;;;18.47;5.00;;;7.50;99.90;;;;;;6204699;23;20181;-80
2022/02/23 04:19:45;;;;;;;22.53;5.40;;;7.50;99.90;;;;;;6205161;23;20498;-79
2022/02/23 04:22:13;;;;;;;21.87;4.90;;;7.50;99.90;;;;;;6206059;23;20174;-79
2022/02/23 04:24:40;;;;;;;24.93;4.37;;;7.50;99.90;;;;;;6204745;23;20209;-80
2022/02/23 04:27:07;;;;;;;17.40;3.77;;;7.50;99.90;;;;;;6206527;23;20189;-79
2022/02/23 04:29:33;;;;;;;26.30;4.53;;;7.40;99.90;;;;;;6205858;23;20185;-79
2022/02/23 04:32:01;;;;;;;14.30;4.27;;;7.30;99.90;;;;;;6206496;23;20197;-80
2022/02/23 04:34:27;;;;;;;24.23;4.97;;;7.20;99.90;;;;;;6206812;23;20181;-79
2022/02/23 04:36:54;;;;;;;19.83;3.97;;;7.10;99.90;;;;;;6205803;23;20166;-80
2022/02/23 04:39:22;;;;;;;20.63;4.97;;;7.10;99.90;;;;;;6206102;23;20174;-80
2022/02/23 04:41:49;;;;;;;22.83;5.87;;;7.00;99.90;;;;;;6206908;23;20438;-79
2022/02/23 04:44:16;;;;;;;21.57;5.17;;;7.00;99.90;;;;;;6206113;23;20205;-79
2022/02/23 04:46:43;;;;;;;23.47;4.80;;;6.90;99.90;;;;;;6204726;23;20174;-80
2022/02/23 04:49:09;;;;;;;21.20;3.90;;;6.90;99.90;;;;;;6206333;23;20178;-79
2022/02/23 04:51:38;;;;;;;23.90;5.50;;;6.90;99.90;;;;;;6205438;23;20182;-79
2022/02/23 04:54:05;;;;;;;19.73;5.20;;;6.80;99.90;;;;;;6206131;23;20167;-79
2022/02/23 04:56:33;;;;;;;13.97;4.13;;;6.80;99.90;;;;;;6205084;23;20174;-79
2022/02/23 04:59:00;;;;;;;28.13;5.50;;;6.80;99.90;;;;;;6205749;23;20553;-80
2022/02/23 05:01:26;;;;;;;24.33;4.83;;;6.80;99.90;;;;;;6205002;23;20182;-79
2022/02/23 05:03:53;;;;;;;19.70;4.23;;;6.80;99.90;;;;;;6205222;23;20185;-79
2022/02/23 05:06:20;;;;;;;24.17;5.53;;;6.90;99.90;;;;;;6206190;23;20177;-79
2022/02/23 05:08:47;;;;;;;27.30;5.67;;;6.90;99.90;;;;;;6205846;23;20194;-79
2022/02/23 05:11:14;;;;;;;22.23;5.47;;;7.00;99.90;;;;;;6204900;23;20433;-79
2022/02/23 05:13:42;;;;;;;22.30;6.57;;;7.00;99.90;;;;;;6204929;23;20209;-80
2022/02/23 05:16:09;;;;;;;23.43;5.60;;;6.90;99.90;;;;;;6206367;23;20162;-80
2022/02/23 05:18:35;;;;;;;22.70;5.93;;;6.90;99.90;;;;;;6204394;23;20171;-79
2022/02/23 05:21:02;;;;;;;26.73;5.60;;;6.90;99.90;;;;;;6203851;23;20181;-78
2022/02/23 05:23:30;;;;;;;17.40;5.07;;;7.00;99.90;;;;;;6204756;23;20185;-79
2022/02/23 05:25:57;;;;;;;26.70;5.40;;;7.00;99.90;;;;;;6202946;23;20514;-79
2022/02/23 05:28:24;;;;;;;28.53;6.07;;;7.00;99.90;;;;;;6205231;23;20178;-79
2022/02/23 05:30:53;;;;;;;24.67;6.30;;;7.00;99.90;;;;;;6205334;23;20571;-79
2022/02/23 05:33:19;;;;;;;31.30;6.03;;;7.00;99.90;;;;;;6204303;23;20169;-79
2022/02/23 05:35:46;;;;;;;21.10;5.90;;;7.00;99.90;;;;;;6205073;23;20181;-77
2022/02/23 05:38:13;;;;;;;23.93;5.60;;;7.00;99.90;;;;;;6205603;23;20590;-78
2022/02/23 05:40:40;;;;;;;26.07;6.00;;;7.00;99.90;;;;;;6204740;23;20166;-78
2022/02/23 05:43:07;;;;;;;23.27;5.90;;;7.00;99.90;;;;;;6205236;23;20169;-78
2022/02/23 05:45:33;;;;;;;22.30;5.70;;;6.90;99.90;;;;;;6205490;23;20190;-79
2022/02/23 05:48:02;;;;;;;18.93;5.77;;;6.90;99.90;;;;;;6204363;23;20170;-80
2022/02/23 05:50:28;;;;;;;23.17;5.37;;;6.90;99.90;;;;;;6205376;23;20174;-79
2022/02/23 05:52:55;;;;;;;32.47;7.47;;;6.90;99.90;;;;;;6204578;23;20667;-79
2022/02/23 05:55:22;;;;;;;26.90;5.70;;;6.90;99.90;;;;;;6205004;23;20174;-80
2022/02/23 05:57:49;;;;;;;25.90;5.60;;;6.90;99.90;;;;;;6204593;23;20178;-79
2022/02/23 06:00:17;;;;;;;22.70;5.20;;;6.90;99.90;;;;;;6205280;23;20173;-80
2022/02/23 06:02:43;;;;;;;18.43;4.90;;;6.90;99.90;;;;;;6204661;23;20824;-78
2022/02/23 06:05:12;;;;;;;20.47;6.00;;;6.80;99.90;;;;;;6206116;23;20194;-80
2022/02/23 06:07:39;;;;;;;19.13;4.17;;;6.80;99.90;;;;;;6204605;23;20217;-79
2022/02/23 06:10:07;;;;;;;20.93;4.67;;;6.80;99.90;;;;;;6205042;23;20181;-79
2022/02/23 06:12:34;;;;;;;21.10;4.77;;;6.80;99.90;;;;;;6204988;23;20174;-78
2022/02/23 06:15:00;;;;;;;26.03;5.53;;;6.80;99.90;;;;;;6203953;23;20206;-79
2022/02/23 06:17:28;;;;;;;24.60;6.30;;;6.70;99.90;;;;;;6205078;23;20193;-79
2022/02/23 06:19:55;;;;;;;23.70;5.60;;;6.70;99.90;;;;;;6205202;23;20236;-79
2022/02/23 06:22:23;;;;;;;31.07;7.47;;;6.70;99.90;;;;;;6204323;23;20174;-80
2022/02/23 06:24:50;;;;;;;31.83;6.97;;;6.70;99.90;;;;;;6204450;23;20602;-79
2022/02/23 06:27:17;;;;;;;27.23;6.70;;;6.70;99.90;;;;;;6205120;23;20166;-80
2022/02/23 06:29:44;;;;;;;23.63;7.57;;;6.70;99.90;;;;;;6203379;23;20209;-78
2022/02/23 06:32:12;;;;;;;36.53;8.70;;;6.70;99.90;;;;;;6201717;23;20178;-79
2022/02/23 06:34:39;;;;;;;32.07;8.00;;;6.60;99.90;;;;;;6201569;23;20238;-78
2022/02/23 06:37:06;;;;;;;31.10;7.23;;;6.60;99.90;;;;;;6201206;23;20180;-79
2022/02/23 06:39:38;;;;;;;22.90;5.23;;;6.50;99.90;;;;;;6202459;23;20509;-79
2022/02/23 06:42:06;;;;;;;17.80;5.33;;;6.50;99.90;;;;;;6202204;23;20170;-80
2022/02/23 06:44:33;;;;;;;26.77;5.30;;;6.40;99.90;;;;;;6201889;23;20182;-79
2022/02/23 06:47:01;;;;;;;29.73;6.23;;;6.40;99.90;;;;;;6201975;23;20653;-79
2022/02/23 06:49:30;;;;;;;20.93;5.10;;;6.30;99.90;;;;;;6202345;23;20201;-79
2022/02/23 06:51:58;;;;;;;29.87;5.47;;;6.30;99.90;;;;;;6202727;23;20181;-79
2022/02/23 06:54:26;;;;;;;22.63;5.40;;;6.40;99.90;;;;;;6203068;23;20180;-79
2022/02/23 06:56:55;;;;;;;24.63;5.63;;;6.40;99.90;;;;;;6202005;23;20289;-78
2022/02/23 06:59:22;;;;;;;21.63;5.07;;;6.40;99.90;;;;;;6203013;23;20170;-79
2022/02/23 07:01:49;;;;;;;21.90;5.00;;;6.40;99.90;;;;;;6202988;23;20173;-79
2022/02/23 07:04:16;;;;;;;25.33;6.90;;;6.40;99.90;;;;;;6202522;23;20174;-78
2022/02/23 07:06:43;;;;;;;29.37;7.13;;;6.50;99.90;;;;;;6202672;23;20198;-79
2022/02/23 07:09:10;;;;;;;28.43;5.97;;;6.50;99.90;;;;;;6202902;23;20170;-79
2022/02/23 07:11:38;;;;;;;25.37;5.13;;;6.50;99.90;;;;;;6201083;23;20200;-80
2022/02/23 07:14:08;;;;;;;26.83;4.53;;;6.50;99.90;;;;;;6202356;23;20202;-79
2022/02/23 07:16:35;;;;;;;22.20;4.97;;;6.50;99.90;;;;;;6204388;23;20483;-79
2022/02/23 07:19:02;;;;;;;25.80;6.43;;;6.50;99.90;;;;;;6204131;23;20166;-78
2022/02/23 07:21:29;;;;;;;25.60;4.87;;;6.50;99.90;;;;;;6204102;23;20174;-80
2022/02/23 07:23:56;;;;;;;23.17;4.90;;;6.50;99.90;;;;;;6204165;23;20270;-78
2022/02/23 07:26:23;;;;;;;24.33;6.00;;;6.50;99.90;;;;;;6203695;23;20284;-79
2022/02/23 07:28:50;;;;;;;20.97;4.30;;;6.60;99.90;;;;;;6203672;23;20178;-78
2022/02/23 07:31:18;;;;;;;20.37;4.40;;;6.60;99.90;;;;;;6204565;23;20426;-78
2022/02/23 07:33:46;;;;;;;26.87;4.53;;;6.60;99.90;;;;;;6204099;23;20384;-78
2022/02/23 07:36:14;;;;;;;22.97;4.20;;;6.60;99.90;;;;;;6204494;23;20181;-79
2022/02/23 07:38:42;;;;;;;25.77;5.17;;;6.60;99.90;;;;;;6203303;23;20178;-78
2022/02/23 07:41:11;;;;;;;17.63;5.03;;;6.70;99.90;;;;;;6204432;23;20551;-77
2022/02/23 07:43:38;;;;;;;19.87;4.57;;;6.70;99.90;;;;;;6204003;23;20178;-78
2022/02/23 07:46:05;;;;;;;21.13;4.40;;;6.80;99.90;;;;;;6203032;23;20228;-78
2022/02/23 07:48:33;;;;;;;19.77;4.77;;;6.80;99.90;;;;;;6204729;23;20280;-79
2022/02/23 07:51:03;;;;;;;26.67;4.20;;;6.70;99.90;;;;;;6204460;23;20174;-79
2022/02/23 07:53:30;;;;;;;19.30;4.30;;;6.70;99.90;;;;;;6204199;23;20176;-80
2022/02/23 07:55:57;;;;;;;22.30;4.53;;;6.70;99.90;;;;;;6203965;23;20594;-79
2022/02/23 07:58:24;;;;;;;24.07;5.83;;;6.80;99.90;;;;;;6204835;23;20166;-80
2022/02/23 08:00:51;;;;;;;23.77;6.53;;;6.80;99.90;;;;;;6203895;23;20178;-78
2022/02/23 08:03:17;;;;;;;35.70;6.17;;;6.80;99.90;;;;;;6205210;23;20174;-79
2022/02/23 08:09:10;;;;;;;25.27;5.70;;;6.90;99.90;;;;;;6217062;23;20205;-80
2022/02/23 08:11:39;;;;;;;28.60;5.70;;;6.90;99.90;;;;;;6234008;23;20620;-79
2022/02/23 08:14:05;;;;;;;29.57;7.03;;;6.90;99.90;;;;;;6235382;23;20181;-81
2022/02/23 08:19:32;;;;;;;17.80;4.73;;;7.00;99.90;;;;;;6234935;23;20430;-79
2022/02/23 08:22:00;;;;;;;26.37;6.63;;;7.10;99.90;;;;;;6230166;23;20173;-80
2022/02/23 08:24:29;;;;;;;18.43;5.50;;;7.10;99.90;;;;;;6234751;23;20169;-81
2022/02/23 08:26:56;;;;;;;20.37;5.33;;;7.10;99.90;;;;;;6234776;23;20220;-79
2022/02/23 08:29:23;;;;;;;22.73;6.43;;;7.10;99.90;;;;;;6234653;23;20205;-78
2022/02/23 08:31:50;;;;;;;16.37;6.23;;;7.10;99.90;;;;;;6234557;23;20629;-80
2022/02/23 08:34:18;;;;;;;17.10;5.30;;;7.10;99.90;;;;;;6235272;23;20178;-80
2022/02/23 08:36:45;;;;;;;24.77;5.83;;;7.10;99.90;;;;;;6233336;23;20239;-78
2022/02/23 08:39:12;;;;;;;22.30;5.73;;;7.10;99.90;;;;;;6234656;23;20180;-80
2022/02/23 08:41:40;;;;;;;18.17;5.73;;;7.20;99.90;;;;;;6233908;23;20184;-79
2022/02/23 08:44:07;;;;;;;25.77;6.67;;;7.30;99.90;;;;;;6234591;23;20177;-78
2022/02/23 08:46:35;;;;;;;17.37;5.80;;;7.30;99.90;;;;;;6234609;23;20194;-78
2022/02/23 08:49:02;;;;;;;12.33;3.80;;;7.30;99.90;;;;;;6233952;23;20177;-80
2022/02/23 08:51:29;;;;;;;18.83;5.13;;;7.30;99.90;;;;;;6233625;23;20879;-80
2022/02/23 08:53:56;;;;;;;21.67;4.43;;;7.30;99.90;;;;;;6231301;23;20177;-80
2022/02/23 08:56:24;;;;;;;22.40;4.13;;;7.30;99.90;;;;;;6233718;23;20169;-78
2022/02/23 08:58:52;;;;;;;13.97;4.53;;;7.40;99.90;;;;;;6232999;23;20563;-79
2022/02/23 09:01:18;;;;;;;18.50;4.47;;;7.40;99.90;;;;;;6233577;23;20589;-79
2022/02/23 09:03:45;;;;;;;21.87;4.77;;;7.40;99.90;;;;;;6232758;23;20177;-78
2022/02/23 09:06:12;;;;;;;12.63;4.00;;;7.50;99.90;;;;;;6233705;23;20201;-78
2022/02/23 09:08:39;;;;;;;14.53;3.03;;;7.50;99.90;;;;;;6207678;23;20233;-77
2022/02/23 09:11:06;;;;;;;15.40;4.37;;;7.60;99.90;;;;;;6204672;23;20178;-78
2022/02/23 09:13:33;;;;;;;21.17;4.10;;;7.60;99.90;;;;;;6204620;23;20173;-79
2022/02/23 09:16:01;;;;;;;19.13;5.07;;;7.70;99.90;;;;;;6204215;23;20177;-79
2022/02/23 09:18:28;;;;;;;12.17;4.30;;;7.70;99.90;;;;;;6205185;23;20178;-78
2022/02/23 09:20:55;;;;;;;16.70;5.20;;;7.70;99.90;;;;;;6205832;23;20174;-79
2022/02/23 09:23:21;;;;;;;22.63;5.73;;;7.90;99.90;;;;;;6206062;23;20166;-78
2022/02/23 09:25:48;;;;;;;16.13;4.30;;;7.90;99.90;;;;;;6204615;23;20194;-80
2022/02/23 09:28:15;;;;;;;14.07;3.60;;;8.00;99.90;;;;;;6205138;23;20178;-80
2022/02/23 09:30:42;;;;;;;16.33;3.97;;;8.00;99.90;;;;;;6205220;23;20178;-78
2022/02/23 09:33:10;;;;;;;11.13;3.73;;;8.00;99.90;;;;;;6205168;23;20178;-79
2022/02/23 09:35:36;;;;;;;27.37;5.63;;;8.10;99.90;;;;;;6204623;23;20174;-78
2022/02/23 09:38:03;;;;;;;17.13;3.93;;;8.10;99.90;;;;;;6203676;23;20173;-81
2022/02/23 09:40:30;;;;;;;17.13;4.00;;;8.20;99.90;;;;;;6205202;23;20425;-82
2022/02/23 09:42:57;;;;;;;19.73;4.43;;;8.20;99.90;;;;;;6205205;23;20185;-79
2022/02/23 09:45:24;;;;;;;13.67;3.40;;;8.20;99.90;;;;;;6205056;23;20178;-80
2022/02/23 09:47:51;;;;;;;21.03;4.27;;;8.20;99.90;;;;;;6205297;23;20177;-79
2022/02/23 09:50:20;;;;;;;14.87;3.87;;;8.30;99.90;;;;;;6206331;23;20175;-80
2022/02/23 09:52:48;;;;;;;15.73;3.67;;;8.40;99.90;;;;;;6205579;23;20189;-80
2022/02/23 09:55:16;;;;;;;17.67;3.40;;;8.40;99.90;;;;;;6205962;23;20170;-80
2022/02/23 09:57:43;;;;;;;18.60;3.90;;;8.50;99.90;;;;;;6205752;23;20189;-80
2022/02/23 10:00:11;;;;;;;14.03;4.40;;;8.60;99.90;;;;;;6206609;23;20178;-79
2022/02/23 10:02:38;;;;;;;21.53;4.67;;;8.60;99.90;;;;;;6206919;23;20174;-79
2022/02/23 10:05:07;;;;;;;19.07;3.60;;;8.70;99.90;;;;;;6205347;23;20176;-78
2022/02/23 10:07:38;;;;;;;15.33;3.30;;;8.80;99.90;;;;;;6204914;23;20208;-81
2022/02/23 10:10:08;;;;;;;16.37;3.40;;;8.90;99.90;;;;;;6206278;23;20170;-81
2022/02/23 10:12:36;;;;;;;16.87;3.73;;;9.00;99.90;;;;;;6206397;23;20174;-80
2022/02/23 10:15:09;;;;;;;13.43;3.20;;;9.10;99.90;;;;;;6204717;23;20659;-80
2022/02/23 10:17:38;;;;;;;19.17;4.10;;;9.20;99.90;;;;;;6204187;23;20677;-80
2022/02/23 10:20:05;;;;;;;16.20;3.47;;;9.30;99.90;;;;;;6200767;23;20174;-79
2022/02/23 10:22:33;;;;;;;9.43;3.20;;;9.40;99.90;;;;;;6205721;23;20174;-80
2022/02/23 10:25:01;;;;;;;19.57;3.10;;;9.40;99.90;;;;;;6204749;23;20201;-80
2022/02/23 10:27:34;;;;;;;13.73;3.43;;;9.50;99.90;;;;;;6204261;23;20201;-80
2022/02/23 10:30:00;;;;;;;14.20;4.07;;;9.60;99.90;;;;;;6203734;23;20177;-79
2022/02/23 10:32:27;;;;;;;13.60;3.80;;;9.70;99.90;;;;;;6205408;23;20167;-79
2022/02/23 10:34:56;;;;;;;15.50;3.20;;;9.80;99.90;;;;;;6201835;23;20166;-79
2022/02/23 10:37:25;;;;;;;11.03;2.87;;;9.90;99.90;;;;;;6204645;23;20166;-80
2022/02/23 10:39:53;;;;;;;15.63;3.90;;;10.00;99.90;;;;;;6204810;23;20188;-80
2022/02/23 10:42:26;;;;;;;13.33;2.80;;;10.00;99.90;;;;;;6202953;23;20525;-79
2022/02/23 10:44:54;;;;;;;8.97;3.10;;;10.10;99.90;;;;;;6204609;23;20806;-79
2022/02/23 10:47:25;;;;;;;12.70;3.43;;;10.20;99.90;;;;;;6205822;23;20217;-80
2022/02/23 10:50:07;;;;;;;14.77;2.67;;;10.20;99.90;;;;;;6203150;23;20173;-80
2022/02/23 10:52:35;;;;;;;12.10;3.87;;;10.30;99.90;;;;;;6205195;23;20174;-79
2022/02/23 10:55:14;;;;;;;16.40;3.83;;;10.40;99.90;;;;;;6204543;23;20201;-80
2022/02/23 10:57:45;;;;;;;14.07;3.70;;;10.50;99.90;;;;;;6204906;23;20273;-79
2022/02/23 11:00:17;;;;;;;13.93;3.90;;;10.60;99.90;;;;;;6205656;23;20165;-79
2022/02/23 11:02:44;;;;;;;15.07;4.10;;;10.70;99.90;;;;;;6202899;23;20178;-80
2022/02/23 11:05:13;;;;;;;13.10;3.70;;;10.70;99.90;;;;;;6204980;23;20185;-80
2022/02/23 11:07:42;;;;;;;16.90;4.77;;;10.70;99.90;;;;;;6204019;23;20241;-80
2022/02/23 11:10:13;;;;;;;16.27;3.87;;;10.80;99.90;;;;;;6203296;23;20177;-78
2022/02/23 11:12:45;;;;;;;16.33;3.87;;;10.90;99.90;;;;;;6203637;23;20170;-79
2022/02/23 11:15:13;;;;;;;16.97;4.77;;;10.90;99.90;;;;;;6205838;23;20551;-80
2022/02/23 11:17:40;;;;;;;19.57;4.27;;;10.90;99.90;;;;;;6204014;23;20257;-78
2022/02/23 11:20:10;;;;;;;18.60;5.10;;;10.90;99.90;;;;;;6204839;23;20174;-80
2022/02/23 11:22:38;;;;;;;20.53;4.53;;;10.90;99.90;;;;;;6205802;23;20461;-80
2022/02/23 11:25:06;;;;;;;16.03;4.70;;;10.90;99.90;;;;;;6202576;23;20170;-78
2022/02/23 11:27:36;;;;;;;17.27;4.30;;;11.00;99.90;;;;;;6203538;23;20198;-80
2022/02/23 11:32:56;;;;;;;15.50;3.80;;;11.10;99.90;;;;;;6202610;23;20170;-78
2022/02/23 11:35:37;;;;;;;19.10;4.67;;;11.10;99.90;;;;;;6203709;23;20170;-79
2022/02/23 11:38:04;;;;;;;13.43;4.07;;;11.10;99.90;;;;;;6203320;23;20335;-79
2022/02/23 11:40:31;;;;;;;17.00;3.90;;;11.20;99.90;;;;;;6203578;23;20459;-78
2022/02/23 11:43:18;;;;;;;17.30;5.13;;;11.20;99.90;;;;;;6202699;23;20174;-80
2022/02/23 11:45:53;;;;;;;19.63;4.40;;;11.30;99.90;;;;;;6202862;23;20178;-79
2022/02/23 11:48:20;;;;;;;16.17;4.40;;;11.40;99.90;;;;;;6204653;23;20166;-78
2022/02/23 11:51:02;;;;;;;17.27;4.53;;;11.30;99.90;;;;;;6203479;23;20158;-80
2022/02/23 11:53:38;;;;;;;21.00;4.77;;;11.30;99.90;;;;;;6203938;23;20212;-79
2022/02/23 11:56:13;;;;;;;15.57;3.77;;;11.40;99.90;;;;;;6204041;23;20173;-79
2022/02/23 11:58:44;;;;;;;15.60;4.10;;;11.50;99.90;;;;;;6203531;23;20178;-78
2022/02/23 12:01:13;;;;;;;20.47;4.50;;;11.50;99.90;;;;;;6204894;23;20177;-78
2022/02/23 12:03:43;;;;;;;18.30;5.00;;;11.50;99.90;;;;;;6202928;23;20209;-78
2022/02/23 12:06:10;;;;;;;13.83;3.87;;;11.50;99.90;;;;;;6203630;23;20571;-79
2022/02/23 12:08:43;;;;;;;21.20;6.03;;;11.50;99.90;;;;;;6203618;23;20210;-79
2022/02/23 12:11:41;;;;;;;17.40;4.77;;;11.50;99.90;;;;;;6202938;23;20169;-79
2022/02/23 12:14:08;;;;;;;15.60;3.73;;;11.60;99.90;;;;;;6203641;23;20182;-78
2022/02/23 12:16:49;;;;;;;15.13;3.80;;;11.70;99.90;;;;;;6203938;23;20170;-79
2022/02/23 12:19:17;;;;;;;14.83;4.10;;;11.70;99.90;;;;;;6204052;23;20170;-79
2022/02/23 12:21:46;;;;;;;15.90;3.77;;;11.70;99.90;;;;;;6203038;23;20241;-78
2022/02/23 12:24:15;;;;;;;14.93;3.83;;;11.70;99.90;;;;;;6205090;23;20178;-80
2022/02/23 12:26:42;;;;;;;19.33;4.07;;;11.70;99.90;;;;;;6203662;23;20194;-78
2022/02/23 12:29:11;;;;;;;12.40;3.37;;;11.70;99.90;;;;;;6204048;23;20178;-78
2022/02/23 12:31:40;;;;;;;17.50;3.60;;;11.60;99.90;;;;;;6203716;23;20530;-79
2022/02/23 12:34:10;;;;;;;18.37;4.67;;;11.60;99.90;;;;;;6203633;23;20178;-78
2022/02/23 12:36:39;;;;;;;16.77;4.03;;;11.60;99.90;;;;;;6204980;23;20225;-79
2022/02/23 12:39:10;;;;;;;15.77;4.00;;;11.60;99.90;;;;;;6206386;23;20174;-79
2022/02/23 12:41:37;;;;;;;15.10;3.63;;;11.50;99.90;;;;;;6208876;23;20170;-80
2022/02/23 12:44:08;;;;;;;21.77;4.63;;;11.50;99.90;;;;;;6210245;23;20178;-81
2022/02/23 12:46:38;;;;;;;11.23;3.60;;;11.50;99.90;;;;;;6207927;23;20182;-80
2022/02/23 12:49:08;;;;;;;15.13;3.40;;;11.60;99.90;;;;;;6208031;23;20735;-79
2022/02/23 12:51:36;;;;;;;12.07;4.10;;;11.50;99.90;;;;;;6210000;23;20185;-80
2022/02/23 12:54:05;;;;;;;16.40;3.67;;;11.50;99.90;;;;;;6208273;23;20194;-79
2022/02/23 12:56:35;;;;;;;14.20;3.47;;;11.40;99.90;;;;;;6208085;23;20448;-80
2022/02/23 12:59:04;;;;;;;13.80;4.00;;;11.40;99.90;;;;;;6207200;23;20178;-79